sensor_id;sensor_type;location;lat;lon;timestamp;P1;durP1;ratioP1;P2;durP2;ratioP2
71566;SDS011;59403;47.456;19.120;2023-01-31T13:44:00;4.53;;;0.70;;
71566;SDS011;59403;47.456;19.120;2023-01-31T13:46:29;3.08;;;0.80;;
71566;SDS011;59403;47.456;19.120;2023-01-31T13:49:02;3.10;;;0.60;;
71566;SDS011;59403;47.456;19.120;2023-01-31T13:51:33;2.35;;;0.77;;
71566;SDS011;59403;47.456;19.120;2023-01-31T13:54:04;3.50;;;0.83;;
71566;SDS011;59403;47.456;19.120;2023-01-31T13:56:40;3.17;;;0.50;;
71566;SDS011;59403;47.456;19.120;2023-01-31T13:59:09;5.07;;;1.10;;
71566;SDS011;59403;47.456;19.120;2023-01-31T14:01:41;3.37;;;0.80;;
71566;SDS011;59403;47.456;19.120;2023-01-31T14:04:24;3.03;;;0.52;;
71566;SDS011;59403;47.456;19.120;2023-01-31T14:16:03;2.58;;;0.57;;
71566;SDS011;59403;47.456;19.120;2023-01-31T14:19:01;4.10;;;0.50;;
71566;SDS011;59403;47.456;19.120;2023-01-31T14:27:38;3.97;;;0.73;;
71566;SDS011;59403;47.456;19.120;2023-01-31T14:30:09;4.72;;;0.70;;
71566;SDS011;59403;47.456;19.120;2023-01-31T14:33:00;3.60;;;0.80;;
71566;SDS011;59403;47.456;19.120;2023-01-31T14:35:39;2.43;;;0.60;;
71566;SDS011;59403;47.456;19.120;2023-01-31T14:38:23;2.72;;;1.00;;
71566;SDS011;59403;47.456;19.120;2023-01-31T14:41:02;2.50;;;0.80;;
71566;SDS011;59403;47.456;19.120;2023-01-31T14:43:43;3.83;;;0.80;;
71566;SDS011;59403;47.456;19.120;2023-01-31T14:46:26;3.53;;;0.82;;
71566;SDS011;59403;47.456;19.120;2023-01-31T14:49:22;2.63;;;0.90;;
71566;SDS011;59403;47.456;19.120;2023-01-31T14:52:15;4.97;;;1.35;;
71566;SDS011;59403;47.456;19.120;2023-01-31T14:54:59;3.87;;;1.10;;
71566;SDS011;59403;47.456;19.120;2023-01-31T14:57:38;4.18;;;0.90;;
71566;SDS011;59403;47.456;19.120;2023-01-31T15:00:15;4.35;;;1.12;;
71566;SDS011;59403;47.456;19.120;2023-01-31T15:02:47;4.80;;;1.47;;
71566;SDS011;59403;47.456;19.120;2023-01-31T15:05:21;3.42;;;1.30;;
71566;SDS011;59403;47.456;19.120;2023-01-31T15:08:05;3.45;;;1.50;;
71566;SDS011;59403;47.456;19.120;2023-01-31T15:10:56;4.65;;;1.15;;
71566;SDS011;59403;47.456;19.120;2023-01-31T15:13:37;5.30;;;1.58;;
71566;SDS011;59403;47.456;19.120;2023-01-31T15:16:09;2.90;;;1.50;;
71566;SDS011;59403;47.456;19.120;2023-01-31T15:18:43;4.68;;;1.37;;
71566;SDS011;59403;47.456;19.120;2023-01-31T15:21:16;3.22;;;1.58;;
71566;SDS011;59403;47.456;19.120;2023-01-31T15:23:48;3.05;;;1.42;;
71566;SDS011;59403;47.456;19.120;2023-01-31T15:26:17;2.85;;;1.30;;
71566;SDS011;59403;47.456;19.120;2023-01-31T15:28:45;4.13;;;1.40;;
71566;SDS011;59403;47.456;19.120;2023-01-31T15:31:16;2.53;;;0.90;;
71566;SDS011;59403;47.456;19.120;2023-01-31T15:33:48;2.83;;;1.00;;
71566;SDS011;59403;47.456;19.120;2023-01-31T15:36:20;7.07;;;0.90;;
71566;SDS011;59403;47.456;19.120;2023-01-31T15:38:53;3.33;;;1.05;;
71566;SDS011;59403;47.456;19.120;2023-01-31T15:41:22;3.90;;;0.97;;
71566;SDS011;59403;47.456;19.120;2023-01-31T15:43:51;6.93;;;2.42;;
71566;SDS011;59403;47.456;19.120;2023-01-31T15:46:36;5.03;;;1.50;;
71566;SDS011;59403;47.456;19.120;2023-01-31T15:49:16;4.87;;;1.65;;
71566;SDS011;59403;47.456;19.120;2023-01-31T15:52:02;5.65;;;1.55;;
71566;SDS011;59403;47.456;19.120;2023-01-31T15:54:35;5.23;;;1.43;;
71566;SDS011;59403;47.456;19.120;2023-01-31T15:57:02;7.05;;;1.70;;
71566;SDS011;59403;47.456;19.120;2023-01-31T15:59:31;6.25;;;1.55;;
71566;SDS011;59403;47.456;19.120;2023-01-31T16:02:01;5.57;;;1.30;;
71566;SDS011;59403;47.456;19.120;2023-01-31T16:04:29;5.87;;;1.80;;
71566;SDS011;59403;47.456;19.120;2023-01-31T16:06:56;3.37;;;1.57;;
71566;SDS011;59403;47.456;19.120;2023-01-31T16:09:27;3.95;;;1.73;;
71566;SDS011;59403;47.456;19.120;2023-01-31T16:11:56;4.10;;;1.50;;
71566;SDS011;59403;47.456;19.120;2023-01-31T16:14:24;5.50;;;1.30;;
71566;SDS011;59403;47.456;19.120;2023-01-31T16:16:52;5.12;;;1.70;;
71566;SDS011;59403;47.456;19.120;2023-01-31T16:19:21;7.13;;;1.80;;
71566;SDS011;59403;47.456;19.120;2023-01-31T16:21:52;5.35;;;1.30;;
71566;SDS011;59403;47.456;19.120;2023-01-31T16:24:21;4.47;;;1.58;;
71566;SDS011;59403;47.456;19.120;2023-01-31T16:26:54;5.28;;;1.60;;
71566;SDS011;59403;47.456;19.120;2023-01-31T16:29:24;5.95;;;1.90;;
71566;SDS011;59403;47.456;19.120;2023-01-31T16:32:09;5.03;;;1.67;;
71566;SDS011;59403;47.456;19.120;2023-01-31T16:34:41;6.45;;;1.92;;
71566;SDS011;59403;47.456;19.120;2023-01-31T16:37:11;3.87;;;1.60;;
71566;SDS011;59403;47.456;19.120;2023-01-31T16:39:39;7.28;;;2.17;;
71566;SDS011;59403;47.456;19.120;2023-01-31T16:42:20;8.23;;;2.90;;
71566;SDS011;59403;47.456;19.120;2023-01-31T16:44:50;5.93;;;2.20;;
71566;SDS011;59403;47.456;19.120;2023-01-31T16:47:30;11.43;;;2.47;;
71566;SDS011;59403;47.456;19.120;2023-01-31T16:53:05;5.95;;;1.70;;
71566;SDS011;59403;47.456;19.120;2023-01-31T16:55:39;6.65;;;2.25;;
71566;SDS011;59403;47.456;19.120;2023-01-31T17:00:36;6.18;;;2.20;;
71566;SDS011;59403;47.456;19.120;2023-01-31T17:03:10;8.90;;;3.37;;
71566;SDS011;59403;47.456;19.120;2023-01-31T17:05:42;10.15;;;2.60;;
71566;SDS011;59403;47.456;19.120;2023-01-31T17:08:13;7.72;;;2.15;;
71566;SDS011;59403;47.456;19.120;2023-01-31T17:10:42;10.73;;;2.53;;
71566;SDS011;59403;47.456;19.120;2023-01-31T17:15:38;5.47;;;1.50;;
71566;SDS011;59403;47.456;19.120;2023-01-31T17:18:07;5.95;;;1.65;;
71566;SDS011;59403;47.456;19.120;2023-01-31T17:20:35;8.00;;;1.65;;
71566;SDS011;59403;47.456;19.120;2023-01-31T17:23:03;7.32;;;1.55;;
71566;SDS011;59403;47.456;19.120;2023-01-31T17:25:32;9.33;;;1.43;;
71566;SDS011;59403;47.456;19.120;2023-01-31T17:28:00;6.47;;;1.75;;
71566;SDS011;59403;47.456;19.120;2023-01-31T17:30:28;5.25;;;2.50;;
71566;SDS011;59403;47.456;19.120;2023-01-31T17:32:57;6.32;;;2.42;;
71566;SDS011;59403;47.456;19.120;2023-01-31T17:35:25;6.05;;;2.67;;
71566;SDS011;59403;47.456;19.120;2023-01-31T17:37:56;6.30;;;3.00;;
71566;SDS011;59403;47.456;19.120;2023-01-31T17:40:23;11.15;;;3.30;;
71566;SDS011;59403;47.456;19.120;2023-01-31T17:42:52;8.20;;;2.97;;
71566;SDS011;59403;47.456;19.120;2023-01-31T17:45:20;9.73;;;3.17;;
71566;SDS011;59403;47.456;19.120;2023-01-31T17:47:47;8.75;;;3.35;;
71566;SDS011;59403;47.456;19.120;2023-01-31T17:50:15;9.63;;;3.40;;
71566;SDS011;59403;47.456;19.120;2023-01-31T17:52:44;6.57;;;3.17;;
71566;SDS011;59403;47.456;19.120;2023-01-31T17:55:11;9.52;;;4.32;;
71566;SDS011;59403;47.456;19.120;2023-01-31T17:57:38;8.95;;;3.45;;
71566;SDS011;59403;47.456;19.120;2023-01-31T18:00:06;8.77;;;3.22;;
71566;SDS011;59403;47.456;19.120;2023-01-31T18:02:35;11.97;;;3.63;;
71566;SDS011;59403;47.456;19.120;2023-01-31T18:05:06;7.85;;;3.30;;
71566;SDS011;59403;47.456;19.120;2023-01-31T18:07:35;8.27;;;3.35;;
71566;SDS011;59403;47.456;19.120;2023-01-31T18:10:02;10.23;;;3.20;;
71566;SDS011;59403;47.456;19.120;2023-01-31T18:12:31;8.15;;;3.95;;
71566;SDS011;59403;47.456;19.120;2023-01-31T18:14:58;9.07;;;3.33;;
71566;SDS011;59403;47.456;19.120;2023-01-31T18:17:25;7.12;;;3.37;;
71566;SDS011;59403;47.456;19.120;2023-01-31T18:19:53;10.35;;;3.75;;
71566;SDS011;59403;47.456;19.120;2023-01-31T18:22:20;8.70;;;4.25;;
71566;SDS011;59403;47.456;19.120;2023-01-31T18:24:48;8.80;;;3.58;;
71566;SDS011;59403;47.456;19.120;2023-01-31T18:27:15;11.07;;;3.83;;
71566;SDS011;59403;47.456;19.120;2023-01-31T18:29:42;9.82;;;4.75;;
71566;SDS011;59403;47.456;19.120;2023-01-31T18:32:09;9.60;;;4.35;;
71566;SDS011;59403;47.456;19.120;2023-01-31T18:34:36;11.12;;;5.53;;
71566;SDS011;59403;47.456;19.120;2023-01-31T18:37:06;12.60;;;5.80;;
71566;SDS011;59403;47.456;19.120;2023-01-31T18:39:40;12.83;;;6.23;;
71566;SDS011;59403;47.456;19.120;2023-01-31T18:42:09;13.25;;;6.03;;
71566;SDS011;59403;47.456;19.120;2023-01-31T18:44:36;11.73;;;5.85;;
71566;SDS011;59403;47.456;19.120;2023-01-31T18:47:03;17.33;;;5.93;;
71566;SDS011;59403;47.456;19.120;2023-01-31T18:49:30;13.93;;;5.37;;
71566;SDS011;59403;47.456;19.120;2023-01-31T18:51:57;11.70;;;5.17;;
71566;SDS011;59403;47.456;19.120;2023-01-31T18:54:24;12.15;;;5.55;;
71566;SDS011;59403;47.456;19.120;2023-01-31T18:56:51;14.05;;;5.60;;
71566;SDS011;59403;47.456;19.120;2023-01-31T18:59:19;13.13;;;5.07;;
71566;SDS011;59403;47.456;19.120;2023-01-31T19:01:46;16.15;;;6.07;;
71566;SDS011;59403;47.456;19.120;2023-01-31T19:04:13;14.37;;;6.03;;
71566;SDS011;59403;47.456;19.120;2023-01-31T19:06:40;15.70;;;6.62;;
71566;SDS011;59403;47.456;19.120;2023-01-31T19:09:07;13.07;;;5.62;;
71566;SDS011;59403;47.456;19.120;2023-01-31T19:11:34;19.42;;;5.78;;
71566;SDS011;59403;47.456;19.120;2023-01-31T19:14:02;15.25;;;5.95;;
71566;SDS011;59403;47.456;19.120;2023-01-31T19:16:33;13.90;;;5.43;;
71566;SDS011;59403;47.456;19.120;2023-01-31T19:19:01;11.65;;;4.82;;
71566;SDS011;59403;47.456;19.120;2023-01-31T19:21:29;12.10;;;5.18;;
71566;SDS011;59403;47.456;19.120;2023-01-31T19:24:01;11.85;;;4.45;;
71566;SDS011;59403;47.456;19.120;2023-01-31T19:26:45;11.05;;;4.65;;
71566;SDS011;59403;47.456;19.120;2023-01-31T19:29:13;11.20;;;4.93;;
71566;SDS011;59403;47.456;19.120;2023-01-31T19:31:42;11.45;;;5.07;;
71566;SDS011;59403;47.456;19.120;2023-01-31T19:34:09;6.40;;;2.75;;
71566;SDS011;59403;47.456;19.120;2023-01-31T19:36:37;7.05;;;1.90;;
71566;SDS011;59403;47.456;19.120;2023-01-31T19:39:05;5.37;;;2.00;;
71566;SDS011;59403;47.456;19.120;2023-01-31T19:41:33;5.70;;;1.87;;
71566;SDS011;59403;47.456;19.120;2023-01-31T19:44:01;6.82;;;1.87;;
71566;SDS011;59403;47.456;19.120;2023-01-31T19:46:29;7.35;;;1.67;;
71566;SDS011;59403;47.456;19.120;2023-01-31T19:48:58;9.70;;;1.90;;
71566;SDS011;59403;47.456;19.120;2023-01-31T19:51:26;5.43;;;1.67;;
71566;SDS011;59403;47.456;19.120;2023-01-31T19:53:53;6.53;;;1.80;;
71566;SDS011;59403;47.456;19.120;2023-01-31T19:56:22;9.15;;;1.98;;
71566;SDS011;59403;47.456;19.120;2023-01-31T19:58:53;4.47;;;1.60;;
71566;SDS011;59403;47.456;19.120;2023-01-31T20:01:19;4.30;;;1.42;;
71566;SDS011;59403;47.456;19.120;2023-01-31T20:03:47;5.10;;;1.60;;
71566;SDS011;59403;47.456;19.120;2023-01-31T20:06:16;5.40;;;1.50;;
71566;SDS011;59403;47.456;19.120;2023-01-31T20:08:47;6.57;;;1.55;;
71566;SDS011;59403;47.456;19.120;2023-01-31T20:11:14;6.80;;;1.70;;
71566;SDS011;59403;47.456;19.120;2023-01-31T20:13:41;4.32;;;1.42;;
71566;SDS011;59403;47.456;19.120;2023-01-31T20:16:09;6.00;;;1.55;;
71566;SDS011;59403;47.456;19.120;2023-01-31T20:18:37;6.00;;;1.80;;
71566;SDS011;59403;47.456;19.120;2023-01-31T20:21:06;7.25;;;2.05;;
71566;SDS011;59403;47.456;19.120;2023-01-31T20:23:35;10.82;;;2.85;;
71566;SDS011;59403;47.456;19.120;2023-01-31T20:26:02;9.30;;;3.37;;
71566;SDS011;59403;47.456;19.120;2023-01-31T20:28:29;8.93;;;2.60;;
71566;SDS011;59403;47.456;19.120;2023-01-31T20:31:01;5.73;;;2.13;;
71566;SDS011;59403;47.456;19.120;2023-01-31T20:33:28;9.52;;;2.80;;
71566;SDS011;59403;47.456;19.120;2023-01-31T20:35:55;11.48;;;3.75;;
71566;SDS011;59403;47.456;19.120;2023-01-31T20:38:22;9.45;;;3.67;;
71566;SDS011;59403;47.456;19.120;2023-01-31T20:40:52;9.57;;;3.33;;
71566;SDS011;59403;47.456;19.120;2023-01-31T20:43:20;13.83;;;4.30;;
71566;SDS011;59403;47.456;19.120;2023-01-31T20:46:03;10.50;;;4.43;;
71566;SDS011;59403;47.456;19.120;2023-01-31T20:48:31;12.50;;;3.50;;
71566;SDS011;59403;47.456;19.120;2023-01-31T20:50:59;9.57;;;3.08;;
71566;SDS011;59403;47.456;19.120;2023-01-31T20:53:26;10.50;;;2.95;;
71566;SDS011;59403;47.456;19.120;2023-01-31T20:55:56;7.07;;;2.40;;
71566;SDS011;59403;47.456;19.120;2023-01-31T20:58:24;6.20;;;2.03;;
71566;SDS011;59403;47.456;19.120;2023-01-31T21:00:52;4.65;;;2.25;;
71566;SDS011;59403;47.456;19.120;2023-01-31T21:03:19;8.32;;;2.37;;
71566;SDS011;59403;47.456;19.120;2023-01-31T21:05:47;6.00;;;2.72;;
71566;SDS011;59403;47.456;19.120;2023-01-31T21:08:14;10.63;;;3.20;;
71566;SDS011;59403;47.456;19.120;2023-01-31T21:10:41;8.35;;;2.67;;
71566;SDS011;59403;47.456;19.120;2023-01-31T21:13:16;9.25;;;3.25;;
71566;SDS011;59403;47.456;19.120;2023-01-31T21:15:47;6.97;;;2.42;;
71566;SDS011;59403;47.456;19.120;2023-01-31T21:18:16;8.38;;;2.95;;
71566;SDS011;59403;47.456;19.120;2023-01-31T21:20:43;4.67;;;2.30;;
71566;SDS011;59403;47.456;19.120;2023-01-31T21:23:10;7.57;;;2.85;;
71566;SDS011;59403;47.456;19.120;2023-01-31T21:25:37;9.02;;;3.00;;
71566;SDS011;59403;47.456;19.120;2023-01-31T21:28:04;9.55;;;2.95;;
71566;SDS011;59403;47.456;19.120;2023-01-31T21:30:32;9.05;;;3.00;;
71566;SDS011;59403;47.456;19.120;2023-01-31T21:32:59;9.60;;;2.97;;
71566;SDS011;59403;47.456;19.120;2023-01-31T21:35:26;6.72;;;2.62;;
71566;SDS011;59403;47.456;19.120;2023-01-31T21:37:53;6.20;;;2.80;;
71566;SDS011;59403;47.456;19.120;2023-01-31T21:40:22;7.97;;;2.45;;
71566;SDS011;59403;47.456;19.120;2023-01-31T21:42:49;9.05;;;3.17;;
71566;SDS011;59403;47.456;19.120;2023-01-31T21:45:16;6.10;;;2.80;;
71566;SDS011;59403;47.456;19.120;2023-01-31T21:48:05;9.13;;;3.17;;
71566;SDS011;59403;47.456;19.120;2023-01-31T21:50:50;7.03;;;3.10;;
71566;SDS011;59403;47.456;19.120;2023-01-31T21:53:17;7.87;;;3.00;;
71566;SDS011;59403;47.456;19.120;2023-01-31T21:55:44;9.23;;;3.05;;
71566;SDS011;59403;47.456;19.120;2023-01-31T21:58:11;8.50;;;3.07;;
71566;SDS011;59403;47.456;19.120;2023-01-31T22:00:38;7.20;;;3.22;;
71566;SDS011;59403;47.456;19.120;2023-01-31T22:03:09;7.75;;;3.53;;
71566;SDS011;59403;47.456;19.120;2023-01-31T22:05:36;7.85;;;3.72;;
71566;SDS011;59403;47.456;19.120;2023-01-31T22:08:03;8.65;;;3.08;;
71566;SDS011;59403;47.456;19.120;2023-01-31T22:10:30;8.83;;;3.00;;
71566;SDS011;59403;47.456;19.120;2023-01-31T22:12:57;8.57;;;3.15;;
71566;SDS011;59403;47.456;19.120;2023-01-31T22:15:23;8.95;;;3.58;;
71566;SDS011;59403;47.456;19.120;2023-01-31T22:17:50;9.30;;;3.15;;
71566;SDS011;59403;47.456;19.120;2023-01-31T22:20:19;6.05;;;2.55;;
71566;SDS011;59403;47.456;19.120;2023-01-31T22:22:46;7.27;;;2.97;;
71566;SDS011;59403;47.456;19.120;2023-01-31T22:25:13;9.15;;;2.78;;
71566;SDS011;59403;47.456;19.120;2023-01-31T22:27:40;6.45;;;2.65;;
71566;SDS011;59403;47.456;19.120;2023-01-31T22:30:08;6.15;;;2.78;;
71566;SDS011;59403;47.456;19.120;2023-01-31T22:32:35;5.25;;;2.33;;
71566;SDS011;59403;47.456;19.120;2023-01-31T22:35:02;5.53;;;2.10;;
71566;SDS011;59403;47.456;19.120;2023-01-31T22:37:31;6.18;;;1.92;;
71566;SDS011;59403;47.456;19.120;2023-01-31T22:39:58;6.12;;;1.75;;
71566;SDS011;59403;47.456;19.120;2023-01-31T22:42:25;5.62;;;1.98;;
71566;SDS011;59403;47.456;19.120;2023-01-31T22:44:52;4.93;;;2.20;;
71566;SDS011;59403;47.456;19.120;2023-01-31T22:47:18;5.23;;;1.80;;
71566;SDS011;59403;47.456;19.120;2023-01-31T22:49:46;4.22;;;1.85;;
71566;SDS011;59403;47.456;19.120;2023-01-31T22:52:13;5.62;;;1.98;;
71566;SDS011;59403;47.456;19.120;2023-01-31T22:54:41;5.50;;;2.00;;
71566;SDS011;59403;47.456;19.120;2023-01-31T22:57:08;4.78;;;2.05;;
71566;SDS011;59403;47.456;19.120;2023-01-31T22:59:35;5.07;;;1.80;;
71566;SDS011;59403;47.456;19.120;2023-01-31T23:02:02;4.07;;;1.45;;
71566;SDS011;59403;47.456;19.120;2023-01-31T23:04:29;5.45;;;1.73;;
71566;SDS011;59403;47.456;19.120;2023-01-31T23:10:16;4.18;;;1.45;;
71566;SDS011;59403;47.456;19.120;2023-01-31T23:12:43;4.90;;;1.70;;
71566;SDS011;59403;47.456;19.120;2023-01-31T23:15:19;4.45;;;1.83;;
71566;SDS011;59403;47.456;19.120;2023-01-31T23:17:46;5.43;;;2.47;;
71566;SDS011;59403;47.456;19.120;2023-01-31T23:20:14;4.80;;;2.30;;
71566;SDS011;59403;47.456;19.120;2023-01-31T23:23:01;5.82;;;2.58;;
71566;SDS011;59403;47.456;19.120;2023-01-31T23:25:31;3.77;;;1.63;;
71566;SDS011;59403;47.456;19.120;2023-01-31T23:27:58;4.45;;;1.62;;
71566;SDS011;59403;47.456;19.120;2023-01-31T23:30:32;7.22;;;1.98;;
71566;SDS011;59403;47.456;19.120;2023-01-31T23:32:59;6.07;;;1.77;;
71566;SDS011;59403;47.456;19.120;2023-01-31T23:35:26;9.13;;;2.58;;
71566;SDS011;59403;47.456;19.120;2023-01-31T23:37:53;6.40;;;2.30;;
71566;SDS011;59403;47.456;19.120;2023-01-31T23:40:20;5.30;;;2.37;;
71566;SDS011;59403;47.456;19.120;2023-01-31T23:42:48;7.45;;;2.30;;
71566;SDS011;59403;47.456;19.120;2023-01-31T23:45:15;6.25;;;2.10;;
71566;SDS011;59403;47.456;19.120;2023-01-31T23:47:42;5.47;;;1.67;;
71566;SDS011;59403;47.456;19.120;2023-01-31T23:50:14;5.90;;;2.80;;
71566;SDS011;59403;47.456;19.120;2023-01-31T23:52:42;7.40;;;1.90;;
71566;SDS011;59403;47.456;19.120;2023-01-31T23:58:04;6.70;;;2.33;;
